Portada
METAR-TAF:

METAR-TAF

Aeroports :

Nàltxik, Rússia

latitud: 43-30-46N, longitud: 043-38-12E, altitud: 445 m

Observació

L'informe es va fer fa 31 minuts, a les 07:00 UTC
Vent 8 kt del Est
Temperatura 7°C
Humitat 36%
Pressió 1029 hPa
Visibilitat 10 km o més

METAR: URMN 080700Z 09004MPS 9999 NSC 07/M07 Q1029 R24/////// NOSIG RMK QFE735

Hora: 11:31 (07:31 UTC)

Pronòstic

L'informe es va fer fa 2 hores i 31 minuts, a les 05:00 UTC
Pronòstic vàlid del 08 a les 06 UTC al 08 a les 15 UTC
Vent 6 kt del Est/Nord-Est amb ràfegues de 16 kt
Visibilitat 10 km o més
Núvols disperses a una alçada de 2000 ft

TAF: URMN 080500Z 0806/0815 07003G08MPS 9999 SCT020

Observacions i pronòstics meteorològics de més de 4000 aeroports (METAR i TAF).

Les estacions disponibles són els punts grocs i vermells al mapa.

Posi el ratolí al punt desitjat per veure el nom de l'estació.

Feu clic per veure les observacions i els pronòstics meteorològics.

Per canviar el mapa: feu clic els botons verds amb una creu de color negre per apropar; al botó verd amb un guió per allunyar la imatge; o en les fletxes verdes per a mapes adjacents.


METAR-TAF: